sensor_id;sensor_type;location;lat;lon;timestamp;pressure;altitude;pressure_sealevel;temperature;humidity
17615;BME280;8926;49.720;6.576;2022-12-07T00:03:31;100021.09;;;4.65;85.92
17615;BME280;8926;49.720;6.576;2022-12-07T00:06:00;100024.56;;;4.64;87.13
17615;BME280;8926;49.720;6.576;2022-12-07T00:08:26;100019.31;;;4.67;87.94
17615;BME280;8926;49.720;6.576;2022-12-07T00:10:51;100018.34;;;4.70;87.15
17615;BME280;8926;49.720;6.576;2022-12-07T00:13:16;100013.16;;;4.70;88.46
17615;BME280;8926;49.720;6.576;2022-12-07T00:15:42;100014.91;;;4.69;87.75
17615;BME280;8926;49.720;6.576;2022-12-07T00:18:07;100011.53;;;4.67;85.76
17615;BME280;8926;49.720;6.576;2022-12-07T00:20:32;100005.66;;;4.62;86.61
17615;BME280;8926;49.720;6.576;2022-12-07T00:22:58;100002.16;;;4.63;86.12
17615;BME280;8926;49.720;6.576;2022-12-07T00:25:23;100002.34;;;4.57;84.95
17615;BME280;8926;49.720;6.576;2022-12-07T00:27:49;99997.31;;;4.51;84.68
17615;BME280;8926;49.720;6.576;2022-12-07T00:30:14;100001.72;;;4.48;84.46
17615;BME280;8926;49.720;6.576;2022-12-07T00:32:39;99993.25;;;4.42;85.64
17615;BME280;8926;49.720;6.576;2022-12-07T00:35:05;99991.63;;;4.40;86.13
17615;BME280;8926;49.720;6.576;2022-12-07T00:37:30;99990.78;;;4.39;85.97
17615;BME280;8926;49.720;6.576;2022-12-07T00:39:55;99996.69;;;4.43;86.11
17615;BME280;8926;49.720;6.576;2022-12-07T00:42:21;99988.91;;;4.43;86.36
17615;BME280;8926;49.720;6.576;2022-12-07T00:44:46;99987.06;;;4.48;87.06
17615;BME280;8926;49.720;6.576;2022-12-07T00:47:11;99985.19;;;4.53;87.05
17615;BME280;8926;49.720;6.576;2022-12-07T00:49:37;99983.41;;;4.55;86.22
17615;BME280;8926;49.720;6.576;2022-12-07T00:52:02;99976.47;;;4.57;86.36
17615;BME280;8926;49.720;6.576;2022-12-07T00:54:27;99971.28;;;4.57;85.41
17615;BME280;8926;49.720;6.576;2022-12-07T00:56:53;99971.19;;;4.60;84.72
17615;BME280;8926;49.720;6.576;2022-12-07T00:59:18;99963.44;;;4.60;85.30
17615;BME280;8926;49.720;6.576;2022-12-07T01:01:43;99967.84;;;4.57;85.58
17615;BME280;8926;49.720;6.576;2022-12-07T01:04:09;99979.03;;;4.57;84.38
17615;BME280;8926;49.720;6.576;2022-12-07T01:06:34;99971.28;;;4.57;84.70
17615;BME280;8926;49.720;6.576;2022-12-07T01:09:00;99967.91;;;4.55;85.67
17615;BME280;8926;49.720;6.576;2022-12-07T01:11:28;99973.06;;;4.55;87.30
17615;BME280;8926;49.720;6.576;2022-12-07T01:13:55;99972.97;;;4.58;87.44
17615;BME280;8926;49.720;6.576;2022-12-07T01:16:22;99969.50;;;4.59;88.41
17615;BME280;8926;49.720;6.576;2022-12-07T01:18:50;99962.56;;;4.61;90.04
17615;BME280;8926;49.720;6.576;2022-12-07T01:21:20;99964.34;;;4.59;88.95
17615;BME280;8926;49.720;6.576;2022-12-07T01:23:46;99963.44;;;4.60;89.56
17615;BME280;8926;49.720;6.576;2022-12-07T01:26:14;99964.28;;;4.61;87.78
17615;BME280;8926;49.720;6.576;2022-12-07T01:28:40;99967.97;;;4.52;88.56
17615;BME280;8926;49.720;6.576;2022-12-07T01:31:11;99980.88;;;4.54;90.12
17615;BME280;8926;49.720;6.576;2022-12-07T01:33:38;99977.41;;;4.55;90.50
17615;BME280;8926;49.720;6.576;2022-12-07T01:36:05;99978.28;;;4.54;88.63
17615;BME280;8926;49.720;6.576;2022-12-07T01:38:32;99980.09;;;4.50;89.06
17615;BME280;8926;49.720;6.576;2022-12-07T01:40:58;99980.09;;;4.50;89.47
17615;BME280;8926;49.720;6.576;2022-12-07T01:43:26;99983.50;;;4.52;89.32
17615;BME280;8926;49.720;6.576;2022-12-07T01:45:52;99980.06;;;4.52;90.35
17615;BME280;8926;49.720;6.576;2022-12-07T01:48:41;99978.31;;;4.52;89.43
17615;BME280;8926;49.720;6.576;2022-12-07T01:51:10;99974.75;;;4.56;89.39
17615;BME280;8926;49.720;6.576;2022-12-07T01:53:41;99977.31;;;4.58;87.89
17615;BME280;8926;49.720;6.576;2022-12-07T01:56:10;99978.06;;;4.61;88.23
17615;BME280;8926;49.720;6.576;2022-12-07T01:58:38;99977.13;;;4.64;86.48
17615;BME280;8926;49.720;6.576;2022-12-07T02:01:04;99973.63;;;4.66;86.31
17615;BME280;8926;49.720;6.576;2022-12-07T02:03:41;99970.03;;;4.70;87.00
17615;BME280;8926;49.720;6.576;2022-12-07T02:06:07;99962.19;;;4.73;85.30
17615;BME280;8926;49.720;6.576;2022-12-07T02:08:34;99962.09;;;4.76;85.23
17615;BME280;8926;49.720;6.576;2022-12-07T02:11:01;99956.88;;;4.78;85.24
17615;BME280;8926;49.720;6.576;2022-12-07T02:13:30;99961.16;;;4.79;84.85
17615;BME280;8926;49.720;6.576;2022-12-07T02:16:24;99953.34;;;4.81;84.38
17615;BME280;8926;49.720;6.576;2022-12-07T02:19:19;99947.22;;;4.83;84.22
17615;BME280;8926;49.720;6.576;2022-12-07T02:21:48;99955.84;;;4.84;84.75
17615;BME280;8926;49.720;6.576;2022-12-07T02:29:47;99948.09;;;4.84;84.91
17615;BME280;8926;49.720;6.576;2022-12-07T02:32:32;99945.44;;;4.85;85.12
17615;BME280;8926;49.720;6.576;2022-12-07T02:35:07;99952.44;;;4.82;83.84
17615;BME280;8926;49.720;6.576;2022-12-07T02:40:38;99949.94;;;4.78;84.72
17615;BME280;8926;49.720;6.576;2022-12-07T02:43:19;99949.06;;;4.80;84.72
17615;BME280;8926;49.720;6.576;2022-12-07T02:45:47;99951.66;;;4.80;83.81
17615;BME280;8926;49.720;6.576;2022-12-07T02:48:16;99952.41;;;4.83;83.92
17615;BME280;8926;49.720;6.576;2022-12-07T02:50:49;99952.44;;;4.82;84.93
17615;BME280;8926;49.720;6.576;2022-12-07T02:53:34;99948.00;;;4.87;84.48
17615;BME280;8926;49.720;6.576;2022-12-07T02:58:47;99938.47;;;4.87;83.86
17615;BME280;8926;49.720;6.576;2022-12-07T03:04:29;99934.06;;;4.91;84.36
17615;BME280;8926;49.720;6.576;2022-12-07T03:07:05;99928.03;;;4.90;84.08
17615;BME280;8926;49.720;6.576;2022-12-07T03:12:19;99924.06;;;4.78;84.27
17615;BME280;8926;49.720;6.576;2022-12-07T03:14:54;99914.63;;;4.77;83.70
17615;BME280;8926;49.720;6.576;2022-12-07T03:17:39;99917.19;;;4.77;83.91
17615;BME280;8926;49.720;6.576;2022-12-07T03:20:08;99930.28;;;4.73;84.77
17615;BME280;8926;49.720;6.576;2022-12-07T03:22:35;99922.56;;;4.71;84.72
17615;BME280;8926;49.720;6.576;2022-12-07T03:25:09;99920.00;;;4.70;84.63
17615;BME280;8926;49.720;6.576;2022-12-07T03:27:43;99926.16;;;4.67;84.32
17615;BME280;8926;49.720;6.576;2022-12-07T03:30:17;99917.47;;;4.68;83.73
17615;BME280;8926;49.720;6.576;2022-12-07T03:32:47;99913.34;;;4.63;83.62
17615;BME280;8926;49.720;6.576;2022-12-07T03:35:43;99913.47;;;4.58;84.93
17615;BME280;8926;49.720;6.576;2022-12-07T03:38:22;99912.50;;;4.62;84.39
17615;BME280;8926;49.720;6.576;2022-12-07T03:41:06;99912.50;;;4.62;85.35
17615;BME280;8926;49.720;6.576;2022-12-07T03:43:32;99916.69;;;4.66;85.05
17615;BME280;8926;49.720;6.576;2022-12-07T03:49:25;99910.50;;;4.70;85.26
17615;BME280;8926;49.720;6.576;2022-12-07T03:52:12;99913.22;;;4.67;84.74
17615;BME280;8926;49.720;6.576;2022-12-07T03:55:04;99918.22;;;4.72;85.60
17615;BME280;8926;49.720;6.576;2022-12-07T03:57:33;99912.91;;;4.76;84.77
17615;BME280;8926;49.720;6.576;2022-12-07T03:59:59;99917.91;;;4.83;85.31
17615;BME280;8926;49.720;6.576;2022-12-07T04:02:27;99910.91;;;4.86;85.06
17615;BME280;8926;49.720;6.576;2022-12-07T04:04:53;99916.84;;;4.90;84.20
17615;BME280;8926;49.720;6.576;2022-12-07T04:07:19;99912.50;;;4.90;83.54
17615;BME280;8926;49.720;6.576;2022-12-07T04:09:44;99907.28;;;4.92;84.48
17615;BME280;8926;49.720;6.576;2022-12-07T04:12:10;99906.41;;;4.93;83.75
17615;BME280;8926;49.720;6.576;2022-12-07T04:14:35;99899.53;;;4.92;84.52
17615;BME280;8926;49.720;6.576;2022-12-07T04:17:00;99904.69;;;4.92;84.15
17615;BME280;8926;49.720;6.576;2022-12-07T04:19:28;99903.94;;;4.88;84.36
17615;BME280;8926;49.720;6.576;2022-12-07T04:21:55;99906.41;;;4.93;83.80
17615;BME280;8926;49.720;6.576;2022-12-07T04:24:20;99905.72;;;4.86;84.47
17615;BME280;8926;49.720;6.576;2022-12-07T04:26:46;99904.88;;;4.86;83.84
17615;BME280;8926;49.720;6.576;2022-12-07T04:29:13;99900.59;;;4.85;84.79
17615;BME280;8926;49.720;6.576;2022-12-07T04:31:38;99904.03;;;4.85;85.44
17615;BME280;8926;49.720;6.576;2022-12-07T04:34:05;99896.31;;;4.84;85.50
17615;BME280;8926;49.720;6.576;2022-12-07T04:36:31;99902.34;;;4.84;86.24
17615;BME280;8926;49.720;6.576;2022-12-07T04:38:57;99903.28;;;4.82;86.85
17615;BME280;8926;49.720;6.576;2022-12-07T04:41:23;99898.19;;;4.78;87.99
17615;BME280;8926;49.720;6.576;2022-12-07T04:44:01;99892.94;;;4.82;87.30
17615;BME280;8926;49.720;6.576;2022-12-07T04:46:28;99892.09;;;4.81;85.96
17615;BME280;8926;49.720;6.576;2022-12-07T04:48:55;99887.84;;;4.78;86.11
17615;BME280;8926;49.720;6.576;2022-12-07T04:51:23;99892.22;;;4.76;86.48
17615;BME280;8926;49.720;6.576;2022-12-07T04:53:49;99886.16;;;4.77;87.42
17615;BME280;8926;49.720;6.576;2022-12-07T04:56:15;99891.38;;;4.76;87.11
17615;BME280;8926;49.720;6.576;2022-12-07T04:58:42;99887.84;;;4.78;87.12
17615;BME280;8926;49.720;6.576;2022-12-07T05:01:07;99892.03;;;4.83;86.02
17615;BME280;8926;49.720;6.576;2022-12-07T05:03:33;99880.88;;;4.81;85.93
17615;BME280;8926;49.720;6.576;2022-12-07T05:05:58;99884.38;;;4.80;85.28
17615;BME280;8926;49.720;6.576;2022-12-07T05:08:23;99884.31;;;4.81;85.51
17615;BME280;8926;49.720;6.576;2022-12-07T05:10:49;99889.44;;;4.83;84.71
17615;BME280;8926;49.720;6.576;2022-12-07T05:13:15;99887.63;;;4.86;85.78
17615;BME280;8926;49.720;6.576;2022-12-07T05:15:40;99887.47;;;4.91;85.94
17615;BME280;8926;49.720;6.576;2022-12-07T05:18:07;99885.69;;;4.93;85.90
17615;BME280;8926;49.720;6.576;2022-12-07T05:20:34;99893.44;;;4.93;85.65
17615;BME280;8926;49.720;6.576;2022-12-07T05:22:59;99887.34;;;4.94;84.76
17615;BME280;8926;49.720;6.576;2022-12-07T05:25:24;99887.34;;;4.94;85.48
17615;BME280;8926;49.720;6.576;2022-12-07T05:27:50;99887.34;;;4.94;85.04
17615;BME280;8926;49.720;6.576;2022-12-07T05:30:16;99886.41;;;4.96;84.75
17615;BME280;8926;49.720;6.576;2022-12-07T05:32:41;99882.09;;;4.97;85.02
17615;BME280;8926;49.720;6.576;2022-12-07T05:35:06;99883.78;;;4.98;84.73
17615;BME280;8926;49.720;6.576;2022-12-07T05:37:32;99885.47;;;4.99;85.17
17615;BME280;8926;49.720;6.576;2022-12-07T05:39:57;99888.06;;;4.99;85.23
17615;BME280;8926;49.720;6.576;2022-12-07T05:42:22;99887.16;;;5.00;84.83
17615;BME280;8926;49.720;6.576;2022-12-07T05:44:48;99882.75;;;5.03;84.98
17615;BME280;8926;49.720;6.576;2022-12-07T05:47:14;99881.91;;;5.03;85.29
17615;BME280;8926;49.720;6.576;2022-12-07T05:49:40;99886.31;;;4.99;84.51
17615;BME280;8926;49.720;6.576;2022-12-07T05:52:05;99887.16;;;5.00;84.55
17615;BME280;8926;49.720;6.576;2022-12-07T05:54:30;99882.00;;;5.00;84.25
17615;BME280;8926;49.720;6.576;2022-12-07T05:56:56;99885.38;;;5.02;85.31
17615;BME280;8926;49.720;6.576;2022-12-07T05:59:21;99888.84;;;5.01;84.67
17615;BME280;8926;49.720;6.576;2022-12-07T06:04:15;99889.91;;;4.95;85.38
17615;BME280;8926;49.720;6.576;2022-12-07T06:06:41;99890.88;;;4.93;86.06
17615;BME280;8926;49.720;6.576;2022-12-07T06:09:06;99888.19;;;4.94;87.08
17615;BME280;8926;49.720;6.576;2022-12-07T06:11:31;99892.44;;;4.97;87.23
17615;BME280;8926;49.720;6.576;2022-12-07T06:14:15;99890.69;;;4.97;88.08
17615;BME280;8926;49.720;6.576;2022-12-07T06:16:41;99886.31;;;4.99;89.01
17615;BME280;8926;49.720;6.576;2022-12-07T06:19:06;99892.28;;;5.01;88.91
17615;BME280;8926;49.720;6.576;2022-12-07T06:21:31;99888.84;;;5.01;88.94
17615;BME280;8926;49.720;6.576;2022-12-07T06:23:57;99886.28;;;5.01;89.50
17615;BME280;8926;49.720;6.576;2022-12-07T06:26:22;99881.09;;;5.01;88.03
17615;BME280;8926;49.720;6.576;2022-12-07T06:28:47;99876.91;;;4.97;89.01
17615;BME280;8926;49.720;6.576;2022-12-07T06:31:13;99878.59;;;4.98;88.09
17615;BME280;8926;49.720;6.576;2022-12-07T06:33:38;99880.38;;;4.96;88.51
17615;BME280;8926;49.720;6.576;2022-12-07T06:36:03;99882.88;;;4.99;88.40
17615;BME280;8926;49.720;6.576;2022-12-07T06:38:29;99879.34;;;5.01;88.51
17615;BME280;8926;49.720;6.576;2022-12-07T06:40:54;99880.16;;;5.03;88.71
17615;BME280;8926;49.720;6.576;2022-12-07T06:43:19;99887.06;;;5.03;87.94
17615;BME280;8926;49.720;6.576;2022-12-07T06:45:45;99885.28;;;5.05;88.20
17615;BME280;8926;49.720;6.576;2022-12-07T06:48:10;99883.44;;;5.08;87.07
17615;BME280;8926;49.720;6.576;2022-12-07T06:50:35;99890.38;;;5.08;86.90
17615;BME280;8926;49.720;6.576;2022-12-07T06:53:01;99892.97;;;5.08;86.35
17615;BME280;8926;49.720;6.576;2022-12-07T06:55:26;99888.66;;;5.07;85.80
17615;BME280;8926;49.720;6.576;2022-12-07T06:57:51;99888.56;;;5.10;86.04
17615;BME280;8926;49.720;6.576;2022-12-07T07:00:17;99894.50;;;5.14;85.28
17615;BME280;8926;49.720;6.576;2022-12-07T07:02:42;99891.88;;;5.15;85.43
17615;BME280;8926;49.720;6.576;2022-12-07T07:05:07;99894.38;;;5.18;85.63
17615;BME280;8926;49.720;6.576;2022-12-07T07:07:33;99891.66;;;5.21;85.72
17615;BME280;8926;49.720;6.576;2022-12-07T07:09:58;99891.66;;;5.21;84.74
17615;BME280;8926;49.720;6.576;2022-12-07T07:12:23;99889.94;;;5.20;85.24
17615;BME280;8926;49.720;6.576;2022-12-07T07:14:49;99895.13;;;5.20;84.79
17615;BME280;8926;49.720;6.576;2022-12-07T07:17:14;99897.69;;;5.22;85.07
17615;BME280;8926;49.720;6.576;2022-12-07T07:19:39;99895.03;;;5.23;84.74
17615;BME280;8926;49.720;6.576;2022-12-07T07:22:05;99891.66;;;5.21;85.17
17615;BME280;8926;49.720;6.576;2022-12-07T07:24:30;99899.41;;;5.21;85.14
17615;BME280;8926;49.720;6.576;2022-12-07T07:26:55;99905.41;;;5.23;85.39
17615;BME280;8926;49.720;6.576;2022-12-07T07:29:21;99900.22;;;5.23;84.84
17615;BME280;8926;49.720;6.576;2022-12-07T07:31:46;99900.22;;;5.23;84.84
17615;BME280;8926;49.720;6.576;2022-12-07T07:34:11;99907.94;;;5.25;85.38
17615;BME280;8926;49.720;6.576;2022-12-07T07:36:37;99911.38;;;5.25;85.13
17615;BME280;8926;49.720;6.576;2022-12-07T07:39:02;99908.78;;;5.25;85.77
17615;BME280;8926;49.720;6.576;2022-12-07T07:41:28;99913.06;;;5.26;85.03
17615;BME280;8926;49.720;6.576;2022-12-07T07:43:53;99913.88;;;5.28;85.22
17615;BME280;8926;49.720;6.576;2022-12-07T07:46:18;99906.91;;;5.30;85.33
17615;BME280;8926;49.720;6.576;2022-12-07T07:48:44;99912.81;;;5.34;85.14
17615;BME280;8926;49.720;6.576;2022-12-07T07:51:09;99917.16;;;5.33;85.59
17615;BME280;8926;49.720;6.576;2022-12-07T07:53:34;99922.25;;;5.36;85.67
17615;BME280;8926;49.720;6.576;2022-12-07T07:55:59;99926.34;;;5.43;86.29
17615;BME280;8926;49.720;6.576;2022-12-07T07:58:25;99925.22;;;5.51;85.59
17615;BME280;8926;49.720;6.576;2022-12-07T08:00:50;99932.94;;;5.52;85.24
17615;BME280;8926;49.720;6.576;2022-12-07T08:03:16;99932.09;;;5.52;84.66
17615;BME280;8926;49.720;6.576;2022-12-07T08:05:41;99940.75;;;5.51;85.08
17615;BME280;8926;49.720;6.576;2022-12-07T08:08:06;99939.13;;;5.48;84.48
17615;BME280;8926;49.720;6.576;2022-12-07T08:10:32;99940.84;;;5.47;84.70
17615;BME280;8926;49.720;6.576;2022-12-07T08:12:58;99945.09;;;5.50;84.49
17615;BME280;8926;49.720;6.576;2022-12-07T08:15:37;99944.19;;;5.51;84.95
17615;BME280;8926;49.720;6.576;2022-12-07T08:18:03;99945.94;;;5.51;84.35
17615;BME280;8926;49.720;6.576;2022-12-07T08:20:33;99945.94;;;5.51;85.04
17615;BME280;8926;49.720;6.576;2022-12-07T08:22:59;99943.34;;;5.51;84.76
17615;BME280;8926;49.720;6.576;2022-12-07T08:25:25;99945.09;;;5.50;83.99
17615;BME280;8926;49.720;6.576;2022-12-07T08:27:51;99947.53;;;5.55;83.91
17615;BME280;8926;49.720;6.576;2022-12-07T08:30:17;99950.97;;;5.55;84.12
17615;BME280;8926;49.720;6.576;2022-12-07T08:32:44;99951.03;;;5.54;84.29
17615;BME280;8926;49.720;6.576;2022-12-07T08:35:10;99950.88;;;5.58;84.53
17615;BME280;8926;49.720;6.576;2022-12-07T08:37:36;99954.41;;;5.56;83.76
17615;BME280;8926;49.720;6.576;2022-12-07T08:40:02;99947.63;;;5.52;83.73
17615;BME280;8926;49.720;6.576;2022-12-07T08:42:28;99944.25;;;5.50;83.96
17615;BME280;8926;49.720;6.576;2022-12-07T08:45:03;99952.91;;;5.49;84.18
17615;BME280;8926;49.720;6.576;2022-12-07T08:47:29;99952.06;;;5.48;85.05
17615;BME280;8926;49.720;6.576;2022-12-07T08:49:54;99940.75;;;5.51;85.01
17615;BME280;8926;49.720;6.576;2022-12-07T08:52:20;99957.91;;;5.55;84.92
17615;BME280;8926;49.720;6.576;2022-12-07T08:54:46;99944.94;;;5.55;84.72
17615;BME280;8926;49.720;6.576;2022-12-07T08:57:11;99943.06;;;5.60;85.73
17615;BME280;8926;49.720;6.576;2022-12-07T08:59:37;99945.56;;;5.63;85.16
17615;BME280;8926;49.720;6.576;2022-12-07T09:02:04;99948.00;;;5.67;84.53
17615;BME280;8926;49.720;6.576;2022-12-07T09:04:29;99944.50;;;5.68;84.83
17615;BME280;8926;49.720;6.576;2022-12-07T09:06:55;99948.66;;;5.72;84.66
17615;BME280;8926;49.720;6.576;2022-12-07T09:09:21;99940.16;;;5.69;83.91
17615;BME280;8926;49.720;6.576;2022-12-07T09:11:46;99948.84;;;5.68;84.30
17615;BME280;8926;49.720;6.576;2022-12-07T09:14:12;99946.16;;;5.71;84.66
17615;BME280;8926;49.720;6.576;2022-12-07T09:16:38;99949.47;;;5.74;84.32
17615;BME280;8926;49.720;6.576;2022-12-07T09:19:03;99945.13;;;5.75;84.09
17615;BME280;8926;49.720;6.576;2022-12-07T09:21:29;99952.00;;;5.76;84.43
17615;BME280;8926;49.720;6.576;2022-12-07T09:23:54;99953.69;;;5.77;84.43
17615;BME280;8926;49.720;6.576;2022-12-07T09:26:19;99945.81;;;5.80;84.58
17615;BME280;8926;49.720;6.576;2022-12-07T09:28:44;99955.19;;;5.84;84.77
17615;BME280;8926;49.720;6.576;2022-12-07T09:31:10;99944.56;;;5.93;84.07
17615;BME280;8926;49.720;6.576;2022-12-07T09:33:35;99941.91;;;5.95;84.28
17615;BME280;8926;49.720;6.576;2022-12-07T09:36:01;99935.78;;;5.97;84.29
17615;BME280;8926;49.720;6.576;2022-12-07T09:38:27;99937.31;;;6.01;83.31
17615;BME280;8926;49.720;6.576;2022-12-07T09:40:55;99938.91;;;6.05;83.69
17615;BME280;8926;49.720;6.576;2022-12-07T09:43:25;99940.50;;;6.09;84.25
17615;BME280;8926;49.720;6.576;2022-12-07T09:45:52;99935.31;;;6.09;83.78
17615;BME280;8926;49.720;6.576;2022-12-07T09:48:27;99924.06;;;6.10;84.39
17615;BME280;8926;49.720;6.576;2022-12-07T09:50:55;99922.31;;;6.79;83.51
17615;BME280;8926;49.720;6.576;2022-12-07T09:53:34;99899.28;;;10.63;73.71
17615;BME280;8926;49.720;6.576;2022-12-07T09:56:01;99893.38;;;13.74;63.00
17615;BME280;8926;49.720;6.576;2022-12-07T09:58:28;99873.66;;;15.86;56.46
17615;BME280;8926;49.720;6.576;2022-12-07T10:03:39;99857.97;;;18.21;48.15
17615;BME280;8926;49.720;6.576;2022-12-07T10:06:06;99835.09;;;18.41;45.21
17615;BME280;8926;49.720;6.576;2022-12-07T10:08:32;99842.75;;;18.93;45.02
17615;BME280;8926;49.720;6.576;2022-12-07T10:10:59;99841.03;;;18.73;43.12
17615;BME280;8926;49.720;6.576;2022-12-07T10:13:37;99844.66;;;18.02;47.05
17615;BME280;8926;49.720;6.576;2022-12-07T10:16:03;99836.75;;;17.39;46.85
17615;BME280;8926;49.720;6.576;2022-12-07T10:18:39;99833.41;;;16.73;47.75
17615;BME280;8926;49.720;6.576;2022-12-07T10:21:14;99834.88;;;15.88;50.25
17615;BME280;8926;49.720;6.576;2022-12-07T10:24:02;99843.66;;;14.21;52.60
17615;BME280;8926;49.720;6.576;2022-12-07T10:26:36;99848.78;;;13.07;56.72
17615;BME280;8926;49.720;6.576;2022-12-07T10:29:33;99850.22;;;11.88;58.07
17615;BME280;8926;49.720;6.576;2022-12-07T10:32:03;99853.97;;;10.94;60.73
17615;BME280;8926;49.720;6.576;2022-12-07T10:34:34;99854.22;;;10.27;61.82
17615;BME280;8926;49.720;6.576;2022-12-07T10:42:16;99851.28;;;9.15;65.91
17615;BME280;8926;49.720;6.576;2022-12-07T10:44:41;99856.00;;;8.90;67.23
17615;BME280;8926;49.720;6.576;2022-12-07T10:58:24;99849.25;;;8.10;69.27
17615;BME280;8926;49.720;6.576;2022-12-07T11:06:39;99845.16;;;7.86;70.40
17615;BME280;8926;49.720;6.576;2022-12-07T11:11:58;99834.66;;;7.69;71.17
17615;BME280;8926;49.720;6.576;2022-12-07T11:14:30;99840.88;;;7.65;71.68
17615;BME280;8926;49.720;6.576;2022-12-07T11:17:00;99835.69;;;7.65;71.03
17615;BME280;8926;49.720;6.576;2022-12-07T11:20:40;99841.00;;;7.62;71.49
17615;BME280;8926;49.720;6.576;2022-12-07T11:28:18;99816.66;;;8.41;70.29
17615;BME280;8926;49.720;6.576;2022-12-07T11:36:36;99803.44;;;8.99;67.15
17615;BME280;8926;49.720;6.576;2022-12-07T11:39:26;99797.75;;;8.73;67.63
17615;BME280;8926;49.720;6.576;2022-12-07T11:42:01;99799.59;;;8.71;68.88
17615;BME280;8926;49.720;6.576;2022-12-07T11:44:39;99799.59;;;8.89;68.36
17615;BME280;8926;49.720;6.576;2022-12-07T11:47:25;99789.16;;;8.71;68.20
17615;BME280;8926;49.720;6.576;2022-12-07T11:50:13;99800.47;;;8.53;68.60
17615;BME280;8926;49.720;6.576;2022-12-07T11:52:51;99797.03;;;8.34;68.60
17615;BME280;8926;49.720;6.576;2022-12-07T11:55:26;99800.31;;;8.18;69.26
17615;BME280;8926;49.720;6.576;2022-12-07T11:58:02;99797.78;;;7.98;69.46
17615;BME280;8926;49.720;6.576;2022-12-07T12:00:28;99792.88;;;7.92;69.94
17615;BME280;8926;49.720;6.576;2022-12-07T12:03:02;99788.19;;;7.80;70.05
17615;BME280;8926;49.720;6.576;2022-12-07T12:05:31;99787.38;;;7.79;70.54
17615;BME280;8926;49.720;6.576;2022-12-07T12:08:19;99779.78;;;7.75;70.27
17615;BME280;8926;49.720;6.576;2022-12-07T12:10:55;99782.78;;;7.66;70.68
17615;BME280;8926;49.720;6.576;2022-12-07T12:19:25;99790.00;;;7.59;71.22
17615;BME280;8926;49.720;6.576;2022-12-07T12:22:02;99785.09;;;7.53;71.11
17615;BME280;8926;49.720;6.576;2022-12-07T12:24:31;99780.88;;;7.51;71.40
17615;BME280;8926;49.720;6.576;2022-12-07T12:27:07;99776.50;;;7.51;71.71
17615;BME280;8926;49.720;6.576;2022-12-07T12:29:37;99780.16;;;7.47;71.18
17615;BME280;8926;49.720;6.576;2022-12-07T12:43:27;99764.09;;;7.37;70.97
17615;BME280;8926;49.720;6.576;2022-12-07T12:45:33;99762.41;;;7.36;71.26
17615;BME280;8926;49.720;6.576;2022-12-07T12:48:04;99758.13;;;7.35;71.56
17615;BME280;8926;49.720;6.576;2022-12-07T12:54:03;99754.09;;;7.28;71.75
17615;BME280;8926;49.720;6.576;2022-12-07T12:56:43;99755.94;;;7.26;72.00
17615;BME280;8926;49.720;6.576;2022-12-07T13:00:15;99754.25;;;7.25;72.22
17615;BME280;8926;49.720;6.576;2022-12-07T13:02:37;99755.09;;;7.26;72.09
17615;BME280;8926;49.720;6.576;2022-12-07T13:10:33;99750.09;;;7.21;72.02
17615;BME280;8926;49.720;6.576;2022-12-07T13:13:01;99756.44;;;7.14;72.45
17615;BME280;8926;49.720;6.576;2022-12-07T13:15:40;99747.75;;;7.15;72.20
17615;BME280;8926;49.720;6.576;2022-12-07T13:18:22;99747.88;;;7.12;72.08
17615;BME280;8926;49.720;6.576;2022-12-07T13:20:53;99746.31;;;7.08;72.15
17615;BME280;8926;49.720;6.576;2022-12-07T13:23:23;99741.00;;;7.11;72.47
17615;BME280;8926;49.720;6.576;2022-12-07T13:26:04;99742.03;;;7.07;72.39
17615;BME280;8926;49.720;6.576;2022-12-07T13:28:38;99736.91;;;7.05;72.20
17615;BME280;8926;49.720;6.576;2022-12-07T13:33:52;99725.53;;;7.08;72.55
17615;BME280;8926;49.720;6.576;2022-12-07T13:36:25;99716.84;;;7.09;72.41
17615;BME280;8926;49.720;6.576;2022-12-07T13:38:56;99723.72;;;7.10;72.58
17615;BME280;8926;49.720;6.576;2022-12-07T13:41:26;99717.50;;;7.14;72.58
17615;BME280;8926;49.720;6.576;2022-12-07T13:44:07;99713.19;;;7.13;72.70
17615;BME280;8926;49.720;6.576;2022-12-07T13:49:22;99709.69;;;7.14;73.26
17615;BME280;8926;49.720;6.576;2022-12-07T13:51:48;99708.66;;;7.18;73.35
17615;BME280;8926;49.720;6.576;2022-12-07T13:54:14;99705.94;;;7.21;73.21
17615;BME280;8926;49.720;6.576;2022-12-07T13:56:39;99702.41;;;7.22;72.70
17615;BME280;8926;49.720;6.576;2022-12-07T13:59:13;99703.31;;;7.21;72.90
17615;BME280;8926;49.720;6.576;2022-12-07T14:01:39;99694.81;;;7.18;72.82
17615;BME280;8926;49.720;6.576;2022-12-07T14:04:33;99695.78;;;7.15;72.65
17615;BME280;8926;49.720;6.576;2022-12-07T14:06:59;99683.84;;;7.11;72.47
17615;BME280;8926;49.720;6.576;2022-12-07T14:09:28;99684.88;;;7.07;73.15
17615;BME280;8926;49.720;6.576;2022-12-07T14:11:55;99687.47;;;7.07;73.72
17615;BME280;8926;49.720;6.576;2022-12-07T14:14:24;99684.88;;;7.07;74.10
17615;BME280;8926;49.720;6.576;2022-12-07T14:17:15;99692.81;;;7.04;73.85
17615;BME280;8926;49.720;6.576;2022-12-07T14:19:48;99686.84;;;7.02;74.05
17615;BME280;8926;49.720;6.576;2022-12-07T14:24:48;99693.09;;;6.98;74.69
17615;BME280;8926;49.720;6.576;2022-12-07T14:27:18;99696.47;;;7.00;74.04
17615;BME280;8926;49.720;6.576;2022-12-07T14:29:43;99698.00;;;7.04;73.66
17615;BME280;8926;49.720;6.576;2022-12-07T14:32:19;99698.84;;;7.04;73.38
17615;BME280;8926;49.720;6.576;2022-12-07T14:34:59;99699.06;;;7.00;73.42
17615;BME280;8926;49.720;6.576;2022-12-07T14:37:24;99703.63;;;6.95;73.37
17615;BME280;8926;49.720;6.576;2022-12-07T14:39:50;99695.16;;;6.90;73.94
17615;BME280;8926;49.720;6.576;2022-12-07T14:42:15;99690.09;;;6.87;73.79
17615;BME280;8926;49.720;6.576;2022-12-07T14:44:41;99694.56;;;6.83;74.34
17615;BME280;8926;49.720;6.576;2022-12-07T14:47:11;99691.13;;;6.82;74.84
17615;BME280;8926;49.720;6.576;2022-12-07T14:49:37;99686.84;;;6.81;74.54
17615;BME280;8926;49.720;6.576;2022-12-07T14:52:03;99691.25;;;6.79;74.54
17615;BME280;8926;49.720;6.576;2022-12-07T14:54:31;99693.84;;;6.79;74.99
17615;BME280;8926;49.720;6.576;2022-12-07T14:56:57;99692.16;;;6.78;74.94
17615;BME280;8926;49.720;6.576;2022-12-07T14:59:22;99692.44;;;6.72;75.14
17615;BME280;8926;49.720;6.576;2022-12-07T15:01:48;99689.84;;;6.72;75.43
17615;BME280;8926;49.720;6.576;2022-12-07T15:04:14;99698.72;;;6.67;75.42
17615;BME280;8926;49.720;6.576;2022-12-07T15:06:39;99688.53;;;6.62;75.70
17615;BME280;8926;49.720;6.576;2022-12-07T15:09:05;99691.25;;;6.59;75.91